sensor_id;sensor_type;location;lat;lon;timestamp;P1;durP1;ratioP1;P2;durP2;ratioP2
12177;SDS011;6152;48.728;9.256;2023-09-19T00:01:19;0.85;;;0.30;;
12177;SDS011;6152;48.728;9.256;2023-09-19T00:03:46;1.52;;;0.47;;
12177;SDS011;6152;48.728;9.256;2023-09-19T00:06:12;3.03;;;0.50;;
12177;SDS011;6152;48.728;9.256;2023-09-19T00:08:40;1.33;;;0.35;;
12177;SDS011;6152;48.728;9.256;2023-09-19T00:11:10;1.67;;;0.32;;
12177;SDS011;6152;48.728;9.256;2023-09-19T00:13:36;1.58;;;0.43;;
12177;SDS011;6152;48.728;9.256;2023-09-19T00:16:08;0.82;;;0.50;;
12177;SDS011;6152;48.728;9.256;2023-09-19T00:18:35;1.67;;;0.40;;
12177;SDS011;6152;48.728;9.256;2023-09-19T00:21:03;0.75;;;0.35;;
12177;SDS011;6152;48.728;9.256;2023-09-19T00:23:32;0.20;;;0.20;;
12177;SDS011;6152;48.728;9.256;2023-09-19T00:25:59;1.38;;;0.30;;
12177;SDS011;6152;48.728;9.256;2023-09-19T00:28:26;0.45;;;0.30;;
12177;SDS011;6152;48.728;9.256;2023-09-19T00:30:52;0.30;;;0.30;;
12177;SDS011;6152;48.728;9.256;2023-09-19T00:33:22;0.73;;;0.40;;
12177;SDS011;6152;48.728;9.256;2023-09-19T00:38:18;1.40;;;0.32;;
12177;SDS011;6152;48.728;9.256;2023-09-19T00:40:51;0.93;;;0.30;;
12177;SDS011;6152;48.728;9.256;2023-09-19T00:43:19;0.75;;;0.20;;
12177;SDS011;6152;48.728;9.256;2023-09-19T00:45:46;0.85;;;0.30;;
12177;SDS011;6152;48.728;9.256;2023-09-19T00:48:16;0.32;;;0.20;;
12177;SDS011;6152;48.728;9.256;2023-09-19T00:50:43;1.27;;;0.20;;
12177;SDS011;6152;48.728;9.256;2023-09-19T00:53:13;0.52;;;0.30;;
12177;SDS011;6152;48.728;9.256;2023-09-19T00:55:43;0.20;;;0.20;;
12177;SDS011;6152;48.728;9.256;2023-09-19T00:58:10;1.70;;;0.32;;
12177;SDS011;6152;48.728;9.256;2023-09-19T01:00:37;1.35;;;0.38;;
12177;SDS011;6152;48.728;9.256;2023-09-19T01:03:04;0.30;;;0.30;;
12177;SDS011;6152;48.728;9.256;2023-09-19T01:05:31;0.30;;;0.30;;
12177;SDS011;6152;48.728;9.256;2023-09-19T01:07:59;0.45;;;0.30;;
12177;SDS011;6152;48.728;9.256;2023-09-19T01:10:26;0.40;;;0.40;;
12177;SDS011;6152;48.728;9.256;2023-09-19T01:18:58;1.75;;;0.30;;
12177;SDS011;6152;48.728;9.256;2023-09-19T01:21:50;0.50;;;0.30;;
12177;SDS011;6152;48.728;9.256;2023-09-19T01:24:50;1.30;;;0.60;;
12177;SDS011;6152;48.728;9.256;2023-09-19T01:27:53;0.35;;;0.35;;
12177;SDS011;6152;48.728;9.256;2023-09-19T01:30:43;0.40;;;0.40;;
12177;SDS011;6152;48.728;9.256;2023-09-19T01:33:11;1.48;;;0.30;;
12177;SDS011;6152;48.728;9.256;2023-09-19T01:35:38;0.30;;;0.30;;
12177;SDS011;6152;48.728;9.256;2023-09-19T01:38:04;1.45;;;0.38;;
12177;SDS011;6152;48.728;9.256;2023-09-19T01:41:00;0.30;;;0.30;;
12177;SDS011;6152;48.728;9.256;2023-09-19T01:43:33;0.30;;;0.30;;
12177;SDS011;6152;48.728;9.256;2023-09-19T01:46:41;1.92;;;0.50;;
12177;SDS011;6152;48.728;9.256;2023-09-19T01:52:15;1.13;;;0.45;;
12177;SDS011;6152;48.728;9.256;2023-09-19T01:54:50;2.35;;;0.45;;
12177;SDS011;6152;48.728;9.256;2023-09-19T01:57:27;0.35;;;0.22;;
12177;SDS011;6152;48.728;9.256;2023-09-19T02:00:01;0.65;;;0.20;;
12177;SDS011;6152;48.728;9.256;2023-09-19T02:02:33;1.40;;;0.32;;
12177;SDS011;6152;48.728;9.256;2023-09-19T02:05:01;1.58;;;0.30;;
12177;SDS011;6152;48.728;9.256;2023-09-19T02:07:29;1.55;;;0.30;;
12177;SDS011;6152;48.728;9.256;2023-09-19T02:10:00;0.50;;;0.30;;
12177;SDS011;6152;48.728;9.256;2023-09-19T02:12:30;1.02;;;0.30;;
12177;SDS011;6152;48.728;9.256;2023-09-19T02:14:57;1.88;;;0.30;;
12177;SDS011;6152;48.728;9.256;2023-09-19T02:17:24;0.22;;;0.22;;
12177;SDS011;6152;48.728;9.256;2023-09-19T02:19:53;1.38;;;0.45;;
12177;SDS011;6152;48.728;9.256;2023-09-19T02:22:23;1.88;;;0.40;;
12177;SDS011;6152;48.728;9.256;2023-09-19T02:24:50;0.35;;;0.30;;
12177;SDS011;6152;48.728;9.256;2023-09-19T02:27:17;0.30;;;0.20;;
12177;SDS011;6152;48.728;9.256;2023-09-19T02:29:44;0.43;;;0.22;;
12177;SDS011;6152;48.728;9.256;2023-09-19T02:32:10;0.90;;;0.30;;
12177;SDS011;6152;48.728;9.256;2023-09-19T02:34:36;2.30;;;0.25;;
12177;SDS011;6152;48.728;9.256;2023-09-19T02:37:04;1.77;;;0.30;;
12177;SDS011;6152;48.728;9.256;2023-09-19T02:39:31;0.80;;;0.40;;
12177;SDS011;6152;48.728;9.256;2023-09-19T02:41:57;0.88;;;0.40;;
12177;SDS011;6152;48.728;9.256;2023-09-19T02:44:24;0.80;;;0.40;;
12177;SDS011;6152;48.728;9.256;2023-09-19T02:46:50;0.68;;;0.20;;
12177;SDS011;6152;48.728;9.256;2023-09-19T02:49:16;1.20;;;0.40;;
12177;SDS011;6152;48.728;9.256;2023-09-19T02:51:43;1.75;;;0.60;;
12177;SDS011;6152;48.728;9.256;2023-09-19T02:54:09;0.30;;;0.30;;
12177;SDS011;6152;48.728;9.256;2023-09-19T02:56:36;2.13;;;0.50;;
12177;SDS011;6152;48.728;9.256;2023-09-19T02:59:03;2.65;;;0.60;;
12177;SDS011;6152;48.728;9.256;2023-09-19T03:01:29;0.30;;;0.30;;
12177;SDS011;6152;48.728;9.256;2023-09-19T03:03:55;1.30;;;0.30;;
12177;SDS011;6152;48.728;9.256;2023-09-19T03:06:21;0.63;;;0.40;;
12177;SDS011;6152;48.728;9.256;2023-09-19T03:08:48;0.40;;;0.40;;
12177;SDS011;6152;48.728;9.256;2023-09-19T03:11:16;1.25;;;0.40;;
12177;SDS011;6152;48.728;9.256;2023-09-19T03:13:50;0.25;;;0.25;;
12177;SDS011;6152;48.728;9.256;2023-09-19T03:16:17;1.23;;;0.40;;
12177;SDS011;6152;48.728;9.256;2023-09-19T03:18:46;1.00;;;0.40;;
12177;SDS011;6152;48.728;9.256;2023-09-19T03:21:14;1.73;;;0.30;;
12177;SDS011;6152;48.728;9.256;2023-09-19T03:23:41;1.85;;;0.40;;
12177;SDS011;6152;48.728;9.256;2023-09-19T03:26:10;1.05;;;0.40;;
12177;SDS011;6152;48.728;9.256;2023-09-19T03:28:40;0.50;;;0.40;;
12177;SDS011;6152;48.728;9.256;2023-09-19T03:31:08;0.47;;;0.30;;
12177;SDS011;6152;48.728;9.256;2023-09-19T03:33:34;1.10;;;0.40;;
12177;SDS011;6152;48.728;9.256;2023-09-19T03:36:01;1.05;;;0.47;;
12177;SDS011;6152;48.728;9.256;2023-09-19T03:38:32;0.88;;;0.40;;
12177;SDS011;6152;48.728;9.256;2023-09-19T03:41:01;0.60;;;0.40;;
12177;SDS011;6152;48.728;9.256;2023-09-19T03:43:28;0.77;;;0.52;;
12177;SDS011;6152;48.728;9.256;2023-09-19T03:45:54;1.08;;;0.60;;
12177;SDS011;6152;48.728;9.256;2023-09-19T03:48:20;0.43;;;0.43;;
12177;SDS011;6152;48.728;9.256;2023-09-19T03:50:49;1.30;;;0.45;;
12177;SDS011;6152;48.728;9.256;2023-09-19T03:53:16;0.40;;;0.40;;
12177;SDS011;6152;48.728;9.256;2023-09-19T03:55:44;1.00;;;0.55;;
12177;SDS011;6152;48.728;9.256;2023-09-19T03:58:11;1.48;;;0.40;;
12177;SDS011;6152;48.728;9.256;2023-09-19T04:00:37;0.95;;;0.60;;
12177;SDS011;6152;48.728;9.256;2023-09-19T04:03:04;1.15;;;0.50;;
12177;SDS011;6152;48.728;9.256;2023-09-19T04:05:31;0.65;;;0.40;;
12177;SDS011;6152;48.728;9.256;2023-09-19T04:07:58;0.63;;;0.40;;
12177;SDS011;6152;48.728;9.256;2023-09-19T04:10:24;0.50;;;0.50;;
12177;SDS011;6152;48.728;9.256;2023-09-19T04:12:54;0.50;;;0.50;;
12177;SDS011;6152;48.728;9.256;2023-09-19T04:15:21;0.50;;;0.50;;
12177;SDS011;6152;48.728;9.256;2023-09-19T04:17:51;0.70;;;0.50;;
12177;SDS011;6152;48.728;9.256;2023-09-19T04:20:20;2.05;;;0.60;;
12177;SDS011;6152;48.728;9.256;2023-09-19T04:22:49;0.32;;;0.32;;
12177;SDS011;6152;48.728;9.256;2023-09-19T04:25:15;1.27;;;0.68;;
12177;SDS011;6152;48.728;9.256;2023-09-19T04:27:41;3.00;;;0.45;;
12177;SDS011;6152;48.728;9.256;2023-09-19T04:30:09;1.83;;;0.50;;
12177;SDS011;6152;48.728;9.256;2023-09-19T04:32:36;1.88;;;0.73;;
12177;SDS011;6152;48.728;9.256;2023-09-19T04:35:05;2.47;;;0.40;;
12177;SDS011;6152;48.728;9.256;2023-09-19T04:37:37;1.42;;;0.70;;
12177;SDS011;6152;48.728;9.256;2023-09-19T04:40:08;0.45;;;0.45;;
12177;SDS011;6152;48.728;9.256;2023-09-19T04:42:39;1.60;;;0.50;;
12177;SDS011;6152;48.728;9.256;2023-09-19T04:45:07;0.57;;;0.50;;
12177;SDS011;6152;48.728;9.256;2023-09-19T04:47:36;0.50;;;0.50;;
12177;SDS011;6152;48.728;9.256;2023-09-19T04:50:05;0.70;;;0.50;;
12177;SDS011;6152;48.728;9.256;2023-09-19T04:52:42;0.73;;;0.50;;
12177;SDS011;6152;48.728;9.256;2023-09-19T04:55:12;1.40;;;0.60;;
12177;SDS011;6152;48.728;9.256;2023-09-19T04:57:50;1.05;;;0.55;;
12177;SDS011;6152;48.728;9.256;2023-09-19T05:00:18;1.10;;;0.45;;
12177;SDS011;6152;48.728;9.256;2023-09-19T05:02:49;3.25;;;0.60;;
12177;SDS011;6152;48.728;9.256;2023-09-19T05:05:16;0.70;;;0.43;;
12177;SDS011;6152;48.728;9.256;2023-09-19T05:07:43;2.53;;;0.85;;
12177;SDS011;6152;48.728;9.256;2023-09-19T05:10:11;2.40;;;0.50;;
12177;SDS011;6152;48.728;9.256;2023-09-19T05:12:38;1.42;;;0.50;;
12177;SDS011;6152;48.728;9.256;2023-09-19T05:15:05;1.83;;;0.65;;
12177;SDS011;6152;48.728;9.256;2023-09-19T05:17:32;1.05;;;0.60;;
12177;SDS011;6152;48.728;9.256;2023-09-19T05:19:59;0.88;;;0.45;;
12177;SDS011;6152;48.728;9.256;2023-09-19T05:22:40;0.50;;;0.50;;
12177;SDS011;6152;48.728;9.256;2023-09-19T05:25:06;1.92;;;0.70;;
12177;SDS011;6152;48.728;9.256;2023-09-19T05:27:33;2.75;;;0.70;;
12177;SDS011;6152;48.728;9.256;2023-09-19T05:29:59;1.67;;;0.70;;
12177;SDS011;6152;48.728;9.256;2023-09-19T05:32:25;1.55;;;0.70;;
12177;SDS011;6152;48.728;9.256;2023-09-19T05:34:51;1.25;;;0.82;;
12177;SDS011;6152;48.728;9.256;2023-09-19T05:37:21;2.10;;;1.10;;
12177;SDS011;6152;48.728;9.256;2023-09-19T05:39:48;1.73;;;0.82;;
12177;SDS011;6152;48.728;9.256;2023-09-19T05:42:14;1.10;;;0.73;;
12177;SDS011;6152;48.728;9.256;2023-09-19T05:44:40;4.00;;;0.82;;
12177;SDS011;6152;48.728;9.256;2023-09-19T05:47:06;1.48;;;1.00;;
12177;SDS011;6152;48.728;9.256;2023-09-19T05:49:34;1.83;;;0.80;;
12177;SDS011;6152;48.728;9.256;2023-09-19T05:52:04;1.65;;;0.88;;
12177;SDS011;6152;48.728;9.256;2023-09-19T05:54:31;1.60;;;1.10;;
12177;SDS011;6152;48.728;9.256;2023-09-19T05:56:59;2.08;;;0.95;;
12177;SDS011;6152;48.728;9.256;2023-09-19T05:59:26;1.00;;;0.88;;
12177;SDS011;6152;48.728;9.256;2023-09-19T06:01:52;1.85;;;1.00;;
12177;SDS011;6152;48.728;9.256;2023-09-19T06:04:19;1.45;;;1.13;;
12177;SDS011;6152;48.728;9.256;2023-09-19T06:06:46;3.50;;;0.77;;
12177;SDS011;6152;48.728;9.256;2023-09-19T06:09:13;1.45;;;1.00;;
12177;SDS011;6152;48.728;9.256;2023-09-19T06:11:42;1.67;;;1.02;;
12177;SDS011;6152;48.728;9.256;2023-09-19T06:14:09;1.23;;;0.80;;
12177;SDS011;6152;48.728;9.256;2023-09-19T06:16:35;0.95;;;0.63;;
12177;SDS011;6152;48.728;9.256;2023-09-19T06:19:03;0.30;;;0.30;;
12177;SDS011;6152;48.728;9.256;2023-09-19T06:21:33;1.70;;;0.70;;
12177;SDS011;6152;48.728;9.256;2023-09-19T06:24:00;0.90;;;0.75;;
12177;SDS011;6152;48.728;9.256;2023-09-19T06:26:26;2.38;;;0.47;;
12177;SDS011;6152;48.728;9.256;2023-09-19T06:28:52;0.57;;;0.57;;
12177;SDS011;6152;48.728;9.256;2023-09-19T06:31:18;1.85;;;0.85;;
12177;SDS011;6152;48.728;9.256;2023-09-19T06:33:47;0.50;;;0.50;;
12177;SDS011;6152;48.728;9.256;2023-09-19T06:36:14;1.75;;;1.00;;
12177;SDS011;6152;48.728;9.256;2023-09-19T06:38:40;1.38;;;0.70;;
12177;SDS011;6152;48.728;9.256;2023-09-19T06:41:06;1.60;;;0.85;;
12177;SDS011;6152;48.728;9.256;2023-09-19T06:43:33;1.00;;;1.00;;
12177;SDS011;6152;48.728;9.256;2023-09-19T06:46:00;0.73;;;0.68;;
12177;SDS011;6152;48.728;9.256;2023-09-19T06:48:27;2.67;;;0.75;;
12177;SDS011;6152;48.728;9.256;2023-09-19T06:50:58;2.72;;;0.70;;
12177;SDS011;6152;48.728;9.256;2023-09-19T06:53:26;1.10;;;0.85;;
12177;SDS011;6152;48.728;9.256;2023-09-19T06:55:56;2.10;;;0.85;;
12177;SDS011;6152;48.728;9.256;2023-09-19T06:58:23;1.98;;;0.93;;
12177;SDS011;6152;48.728;9.256;2023-09-19T07:00:49;2.50;;;1.00;;
12177;SDS011;6152;48.728;9.256;2023-09-19T07:03:15;1.25;;;0.93;;
12177;SDS011;6152;48.728;9.256;2023-09-19T07:05:45;1.88;;;0.90;;
12177;SDS011;6152;48.728;9.256;2023-09-19T07:08:13;2.80;;;1.33;;
12177;SDS011;6152;48.728;9.256;2023-09-19T07:10:40;2.20;;;1.15;;
12177;SDS011;6152;48.728;9.256;2023-09-19T07:13:13;3.17;;;1.10;;
12177;SDS011;6152;48.728;9.256;2023-09-19T07:15:41;1.75;;;0.90;;
12177;SDS011;6152;48.728;9.256;2023-09-19T07:18:12;1.33;;;0.90;;
12177;SDS011;6152;48.728;9.256;2023-09-19T07:20:40;2.42;;;0.93;;
12177;SDS011;6152;48.728;9.256;2023-09-19T07:23:13;0.90;;;0.80;;
12177;SDS011;6152;48.728;9.256;2023-09-19T07:25:40;1.70;;;0.75;;
12177;SDS011;6152;48.728;9.256;2023-09-19T07:28:06;1.98;;;0.90;;
12177;SDS011;6152;48.728;9.256;2023-09-19T07:30:35;1.85;;;0.80;;
12177;SDS011;6152;48.728;9.256;2023-09-19T07:33:02;1.13;;;0.80;;
12177;SDS011;6152;48.728;9.256;2023-09-19T07:35:30;0.93;;;0.80;;
12177;SDS011;6152;48.728;9.256;2023-09-19T07:37:56;1.25;;;0.80;;
12177;SDS011;6152;48.728;9.256;2023-09-19T07:40:23;0.80;;;0.60;;
12177;SDS011;6152;48.728;9.256;2023-09-19T07:42:52;0.98;;;0.80;;
12177;SDS011;6152;48.728;9.256;2023-09-19T07:45:18;1.77;;;0.90;;
12177;SDS011;6152;48.728;9.256;2023-09-19T07:47:47;1.25;;;0.93;;
12177;SDS011;6152;48.728;9.256;2023-09-19T07:50:16;1.25;;;0.65;;
12177;SDS011;6152;48.728;9.256;2023-09-19T07:52:44;5.85;;;1.02;;
12177;SDS011;6152;48.728;9.256;2023-09-19T07:55:10;3.53;;;0.77;;
12177;SDS011;6152;48.728;9.256;2023-09-19T07:57:40;1.42;;;0.88;;
12177;SDS011;6152;48.728;9.256;2023-09-19T08:00:07;2.63;;;0.90;;
12177;SDS011;6152;48.728;9.256;2023-09-19T08:02:37;1.45;;;0.80;;
12177;SDS011;6152;48.728;9.256;2023-09-19T08:05:05;0.93;;;0.80;;
12177;SDS011;6152;48.728;9.256;2023-09-19T08:07:34;3.92;;;0.70;;
12177;SDS011;6152;48.728;9.256;2023-09-19T08:10:01;1.23;;;0.60;;
12177;SDS011;6152;48.728;9.256;2023-09-19T08:12:29;1.55;;;0.85;;
12177;SDS011;6152;48.728;9.256;2023-09-19T08:14:55;3.67;;;0.75;;
12177;SDS011;6152;48.728;9.256;2023-09-19T08:17:21;3.70;;;0.68;;
12177;SDS011;6152;48.728;9.256;2023-09-19T08:19:48;0.55;;;0.50;;
12177;SDS011;6152;48.728;9.256;2023-09-19T08:22:17;1.13;;;0.40;;
12177;SDS011;6152;48.728;9.256;2023-09-19T08:24:48;1.48;;;0.70;;
12177;SDS011;6152;48.728;9.256;2023-09-19T08:27:14;0.80;;;0.40;;
12177;SDS011;6152;48.728;9.256;2023-09-19T08:29:44;0.40;;;0.40;;
12177;SDS011;6152;48.728;9.256;2023-09-19T08:32:11;0.60;;;0.40;;
12177;SDS011;6152;48.728;9.256;2023-09-19T08:34:37;0.75;;;0.60;;
12177;SDS011;6152;48.728;9.256;2023-09-19T08:37:03;3.67;;;0.60;;
12177;SDS011;6152;48.728;9.256;2023-09-19T08:39:30;0.35;;;0.35;;
12177;SDS011;6152;48.728;9.256;2023-09-19T08:41:58;0.70;;;0.40;;
12177;SDS011;6152;48.728;9.256;2023-09-19T08:44:25;2.72;;;0.50;;
12177;SDS011;6152;48.728;9.256;2023-09-19T08:46:55;1.42;;;0.60;;
12177;SDS011;6152;48.728;9.256;2023-09-19T08:52:42;2.15;;;0.77;;
12177;SDS011;6152;48.728;9.256;2023-09-19T08:55:12;2.20;;;0.50;;
12177;SDS011;6152;48.728;9.256;2023-09-19T08:57:45;1.48;;;0.50;;
12177;SDS011;6152;48.728;9.256;2023-09-19T09:00:14;1.40;;;0.45;;
12177;SDS011;6152;48.728;9.256;2023-09-19T09:02:45;0.90;;;0.50;;
12177;SDS011;6152;48.728;9.256;2023-09-19T09:05:14;1.75;;;0.55;;
12177;SDS011;6152;48.728;9.256;2023-09-19T09:07:47;2.95;;;0.40;;
12177;SDS011;6152;48.728;9.256;2023-09-19T09:10:16;0.60;;;0.40;;
12177;SDS011;6152;48.728;9.256;2023-09-19T09:12:50;1.00;;;0.50;;
12177;SDS011;6152;48.728;9.256;2023-09-19T09:15:19;0.47;;;0.32;;
12177;SDS011;6152;48.728;9.256;2023-09-19T09:17:48;0.50;;;0.30;;
12177;SDS011;6152;48.728;9.256;2023-09-19T09:20:22;0.65;;;0.40;;
12177;SDS011;6152;48.728;9.256;2023-09-19T09:22:51;1.10;;;0.40;;
12177;SDS011;6152;48.728;9.256;2023-09-19T09:25:25;0.73;;;0.40;;
12177;SDS011;6152;48.728;9.256;2023-09-19T09:28:27;0.85;;;0.40;;
12177;SDS011;6152;48.728;9.256;2023-09-19T09:30:55;0.50;;;0.50;;
12177;SDS011;6152;48.728;9.256;2023-09-19T09:33:33;1.95;;;0.50;;
12177;SDS011;6152;48.728;9.256;2023-09-19T09:36:00;0.93;;;0.50;;
12177;SDS011;6152;48.728;9.256;2023-09-19T09:38:42;1.83;;;0.57;;
12177;SDS011;6152;48.728;9.256;2023-09-19T09:41:10;1.48;;;0.50;;
12177;SDS011;6152;48.728;9.256;2023-09-19T09:43:40;0.82;;;0.40;;
12177;SDS011;6152;48.728;9.256;2023-09-19T09:46:12;0.55;;;0.47;;
12177;SDS011;6152;48.728;9.256;2023-09-19T09:51:38;0.40;;;0.40;;
12177;SDS011;6152;48.728;9.256;2023-09-19T09:54:13;1.67;;;0.50;;
12177;SDS011;6152;48.728;9.256;2023-09-19T09:56:57;0.88;;;0.77;;
12177;SDS011;6152;48.728;9.256;2023-09-19T09:59:43;0.50;;;0.50;;
12177;SDS011;6152;48.728;9.256;2023-09-19T10:02:12;2.28;;;0.45;;
12177;SDS011;6152;48.728;9.256;2023-09-19T10:04:39;0.40;;;0.40;;
12177;SDS011;6152;48.728;9.256;2023-09-19T10:09:55;2.45;;;0.50;;
12177;SDS011;6152;48.728;9.256;2023-09-19T10:12:29;4.82;;;0.60;;
12177;SDS011;6152;48.728;9.256;2023-09-19T10:15:00;0.40;;;0.40;;
12177;SDS011;6152;48.728;9.256;2023-09-19T10:17:29;1.15;;;0.35;;
12177;SDS011;6152;48.728;9.256;2023-09-19T10:19:59;1.42;;;0.60;;
12177;SDS011;6152;48.728;9.256;2023-09-19T10:22:34;0.80;;;0.50;;
12177;SDS011;6152;48.728;9.256;2023-09-19T10:25:02;1.45;;;0.55;;
12177;SDS011;6152;48.728;9.256;2023-09-19T10:27:32;0.82;;;0.40;;
12177;SDS011;6152;48.728;9.256;2023-09-19T10:30:02;0.50;;;0.50;;
12177;SDS011;6152;48.728;9.256;2023-09-19T10:32:34;0.73;;;0.60;;
12177;SDS011;6152;48.728;9.256;2023-09-19T10:35:04;0.90;;;0.55;;
12177;SDS011;6152;48.728;9.256;2023-09-19T10:37:32;0.93;;;0.50;;
12177;SDS011;6152;48.728;9.256;2023-09-19T10:39:59;0.77;;;0.50;;
12177;SDS011;6152;48.728;9.256;2023-09-19T10:42:25;2.45;;;0.40;;
12177;SDS011;6152;48.728;9.256;2023-09-19T10:44:54;0.90;;;0.50;;
12177;SDS011;6152;48.728;9.256;2023-09-19T10:47:25;1.73;;;0.50;;
12177;SDS011;6152;48.728;9.256;2023-09-19T10:49:51;1.05;;;0.50;;
12177;SDS011;6152;48.728;9.256;2023-09-19T10:52:20;0.45;;;0.45;;
12177;SDS011;6152;48.728;9.256;2023-09-19T10:54:50;1.15;;;0.70;;
12177;SDS011;6152;48.728;9.256;2023-09-19T10:57:22;0.75;;;0.38;;
12177;SDS011;6152;48.728;9.256;2023-09-19T11:00:07;0.50;;;0.40;;
12177;SDS011;6152;48.728;9.256;2023-09-19T11:06:01;0.60;;;0.60;;
12177;SDS011;6152;48.728;9.256;2023-09-19T11:23:23;0.75;;;0.50;;
12177;SDS011;6152;48.728;9.256;2023-09-19T11:30:41;0.63;;;0.50;;
12177;SDS011;6152;48.728;9.256;2023-09-19T11:39:16;0.52;;;0.38;;
12177;SDS011;6152;48.728;9.256;2023-09-19T11:46:35;0.68;;;0.50;;
12177;SDS011;6152;48.728;9.256;2023-09-19T11:49:17;0.82;;;0.40;;
12177;SDS011;6152;48.728;9.256;2023-09-19T11:51:48;0.40;;;0.40;;
12177;SDS011;6152;48.728;9.256;2023-09-19T11:54:19;0.43;;;0.40;;
12177;SDS011;6152;48.728;9.256;2023-09-19T11:56:50;0.30;;;0.30;;
12177;SDS011;6152;48.728;9.256;2023-09-19T11:59:22;0.30;;;0.30;;
12177;SDS011;6152;48.728;9.256;2023-09-19T12:01:53;1.02;;;0.50;;
12177;SDS011;6152;48.728;9.256;2023-09-19T12:07:11;0.60;;;0.40;;
12177;SDS011;6152;48.728;9.256;2023-09-19T12:09:42;0.77;;;0.40;;
12177;SDS011;6152;48.728;9.256;2023-09-19T12:12:18;1.30;;;0.50;;
12177;SDS011;6152;48.728;9.256;2023-09-19T12:14:52;0.57;;;0.30;;
12177;SDS011;6152;48.728;9.256;2023-09-19T12:17:19;0.50;;;0.40;;
12177;SDS011;6152;48.728;9.256;2023-09-19T12:19:55;1.02;;;0.50;;
12177;SDS011;6152;48.728;9.256;2023-09-19T12:22:22;0.88;;;0.50;;
12177;SDS011;6152;48.728;9.256;2023-09-19T12:24:50;1.13;;;0.43;;
12177;SDS011;6152;48.728;9.256;2023-09-19T12:27:19;1.02;;;0.50;;
12177;SDS011;6152;48.728;9.256;2023-09-19T12:29:47;0.82;;;0.50;;
12177;SDS011;6152;48.728;9.256;2023-09-19T12:32:14;0.43;;;0.40;;
12177;SDS011;6152;48.728;9.256;2023-09-19T12:34:50;0.40;;;0.40;;
12177;SDS011;6152;48.728;9.256;2023-09-19T12:37:17;1.98;;;0.40;;
12177;SDS011;6152;48.728;9.256;2023-09-19T12:39:48;5.13;;;0.57;;
12177;SDS011;6152;48.728;9.256;2023-09-19T12:42:17;4.38;;;0.85;;
12177;SDS011;6152;48.728;9.256;2023-09-19T12:44:47;1.85;;;0.60;;
12177;SDS011;6152;48.728;9.256;2023-09-19T12:47:20;3.90;;;0.85;;
12177;SDS011;6152;48.728;9.256;2023-09-19T12:50:08;1.67;;;0.40;;
12177;SDS011;6152;48.728;9.256;2023-09-19T12:52:39;1.42;;;0.45;;
12177;SDS011;6152;48.728;9.256;2023-09-19T12:55:06;2.92;;;0.63;;
12177;SDS011;6152;48.728;9.256;2023-09-19T12:57:34;1.73;;;0.50;;
12177;SDS011;6152;48.728;9.256;2023-09-19T13:00:03;1.63;;;0.73;;
12177;SDS011;6152;48.728;9.256;2023-09-19T13:02:36;1.23;;;0.50;;
12177;SDS011;6152;48.728;9.256;2023-09-19T13:05:03;1.20;;;0.70;;
12177;SDS011;6152;48.728;9.256;2023-09-19T13:10:12;3.45;;;0.70;;
12177;SDS011;6152;48.728;9.256;2023-09-19T13:12:41;2.25;;;0.57;;
12177;SDS011;6152;48.728;9.256;2023-09-19T13:15:12;12.35;;;1.25;;
12177;SDS011;6152;48.728;9.256;2023-09-19T13:17:47;0.52;;;0.43;;
12177;SDS011;6152;48.728;9.256;2023-09-19T13:20:20;2.17;;;0.50;;
12177;SDS011;6152;48.728;9.256;2023-09-19T13:22:52;2.08;;;0.80;;
12177;SDS011;6152;48.728;9.256;2023-09-19T13:25:25;7.32;;;1.02;;
12177;SDS011;6152;48.728;9.256;2023-09-19T13:27:55;8.52;;;1.27;;
12177;SDS011;6152;48.728;9.256;2023-09-19T13:30:26;0.68;;;0.43;;
12177;SDS011;6152;48.728;9.256;2023-09-19T13:33:09;12.38;;;1.30;;
12177;SDS011;6152;48.728;9.256;2023-09-19T13:35:39;7.63;;;1.83;;
12177;SDS011;6152;48.728;9.256;2023-09-19T13:38:06;11.40;;;1.20;;
12177;SDS011;6152;48.728;9.256;2023-09-19T13:40:36;1.73;;;0.40;;
12177;SDS011;6152;48.728;9.256;2023-09-19T13:43:06;2.80;;;0.65;;
12177;SDS011;6152;48.728;9.256;2023-09-19T13:45:33;6.50;;;1.10;;
12177;SDS011;6152;48.728;9.256;2023-09-19T13:47:59;5.15;;;0.45;;
12177;SDS011;6152;48.728;9.256;2023-09-19T13:50:25;1.77;;;0.50;;
12177;SDS011;6152;48.728;9.256;2023-09-19T13:52:54;1.75;;;0.60;;
12177;SDS011;6152;48.728;9.256;2023-09-19T13:55:21;2.25;;;0.57;;
12177;SDS011;6152;48.728;9.256;2023-09-19T13:57:47;2.42;;;0.60;;
12177;SDS011;6152;48.728;9.256;2023-09-19T14:00:15;0.40;;;0.40;;
12177;SDS011;6152;48.728;9.256;2023-09-19T14:02:42;0.85;;;0.50;;
12177;SDS011;6152;48.728;9.256;2023-09-19T14:05:11;1.50;;;0.40;;
12177;SDS011;6152;48.728;9.256;2023-09-19T14:07:39;1.17;;;0.28;;
12177;SDS011;6152;48.728;9.256;2023-09-19T14:10:06;0.40;;;0.40;;
12177;SDS011;6152;48.728;9.256;2023-09-19T14:12:33;0.52;;;0.50;;
12177;SDS011;6152;48.728;9.256;2023-09-19T14:15:00;0.70;;;0.40;;
12177;SDS011;6152;48.728;9.256;2023-09-19T14:17:26;0.57;;;0.30;;
12177;SDS011;6152;48.728;9.256;2023-09-19T14:19:53;7.03;;;0.82;;
12177;SDS011;6152;48.728;9.256;2023-09-19T14:22:19;10.70;;;0.98;;
12177;SDS011;6152;48.728;9.256;2023-09-19T14:24:45;0.95;;;0.30;;
12177;SDS011;6152;48.728;9.256;2023-09-19T14:27:12;0.82;;;0.40;;
12177;SDS011;6152;48.728;9.256;2023-09-19T14:29:39;1.33;;;0.40;;
12177;SDS011;6152;48.728;9.256;2023-09-19T14:32:06;0.77;;;0.40;;
12177;SDS011;6152;48.728;9.256;2023-09-19T14:34:32;1.00;;;0.50;;
12177;SDS011;6152;48.728;9.256;2023-09-19T14:36:59;5.90;;;0.50;;
12177;SDS011;6152;48.728;9.256;2023-09-19T14:39:25;1.48;;;0.38;;
12177;SDS011;6152;48.728;9.256;2023-09-19T14:41:52;2.47;;;0.57;;
12177;SDS011;6152;48.728;9.256;2023-09-19T14:44:18;0.73;;;0.30;;
12177;SDS011;6152;48.728;9.256;2023-09-19T14:46:44;2.63;;;0.63;;
12177;SDS011;6152;48.728;9.256;2023-09-19T14:49:11;0.90;;;0.43;;
12177;SDS011;6152;48.728;9.256;2023-09-19T14:51:37;1.05;;;0.60;;
12177;SDS011;6152;48.728;9.256;2023-09-19T14:54:09;1.35;;;0.50;;
12177;SDS011;6152;48.728;9.256;2023-09-19T14:56:35;1.58;;;0.60;;
12177;SDS011;6152;48.728;9.256;2023-09-19T14:59:01;1.58;;;0.52;;
12177;SDS011;6152;48.728;9.256;2023-09-19T15:01:27;0.77;;;0.60;;
12177;SDS011;6152;48.728;9.256;2023-09-19T15:03:54;0.60;;;0.60;;
12177;SDS011;6152;48.728;9.256;2023-09-19T15:06:21;0.70;;;0.60;;
12177;SDS011;6152;48.728;9.256;2023-09-19T15:08:47;1.02;;;0.40;;
12177;SDS011;6152;48.728;9.256;2023-09-19T15:11:15;1.13;;;0.50;;
12177;SDS011;6152;48.728;9.256;2023-09-19T15:13:43;0.85;;;0.50;;
12177;SDS011;6152;48.728;9.256;2023-09-19T15:16:10;0.40;;;0.40;;
12177;SDS011;6152;48.728;9.256;2023-09-19T15:18:38;0.85;;;0.50;;
12177;SDS011;6152;48.728;9.256;2023-09-19T15:21:10;0.93;;;0.57;;
12177;SDS011;6152;48.728;9.256;2023-09-19T15:23:37;0.57;;;0.30;;
12177;SDS011;6152;48.728;9.256;2023-09-19T15:26:05;0.50;;;0.40;;
12177;SDS011;6152;48.728;9.256;2023-09-19T15:28:33;0.50;;;0.43;;
12177;SDS011;6152;48.728;9.256;2023-09-19T15:31:00;1.00;;;0.52;;
12177;SDS011;6152;48.728;9.256;2023-09-19T15:33:27;0.65;;;0.50;;
12177;SDS011;6152;48.728;9.256;2023-09-19T15:36:07;0.95;;;0.40;;
12177;SDS011;6152;48.728;9.256;2023-09-19T15:41:26;0.65;;;0.45;;
12177;SDS011;6152;48.728;9.256;2023-09-19T15:43:53;0.30;;;0.30;;
12177;SDS011;6152;48.728;9.256;2023-09-19T15:46:21;0.45;;;0.43;;
12177;SDS011;6152;48.728;9.256;2023-09-19T15:48:47;2.15;;;0.50;;
12177;SDS011;6152;48.728;9.256;2023-09-19T15:51:13;1.08;;;0.32;;
12177;SDS011;6152;48.728;9.256;2023-09-19T15:56:10;0.85;;;0.60;;
12177;SDS011;6152;48.728;9.256;2023-09-19T15:58:46;0.55;;;0.35;;
12177;SDS011;6152;48.728;9.256;2023-09-19T16:01:14;1.80;;;0.40;;
12177;SDS011;6152;48.728;9.256;2023-09-19T16:03:47;0.52;;;0.30;;
12177;SDS011;6152;48.728;9.256;2023-09-19T16:06:16;0.30;;;0.30;;
12177;SDS011;6152;48.728;9.256;2023-09-19T16:08:44;0.65;;;0.40;;
12177;SDS011;6152;48.728;9.256;2023-09-19T16:11:12;1.05;;;0.40;;
12177;SDS011;6152;48.728;9.256;2023-09-19T16:13:40;1.27;;;0.30;;
12177;SDS011;6152;48.728;9.256;2023-09-19T16:16:07;1.20;;;0.30;;
12177;SDS011;6152;48.728;9.256;2023-09-19T16:18:38;0.98;;;0.40;;